Time;durP1;ratioP1;P1;durP2;ratioP2;P2;SDS_P1;SDS_P2;PMS_P1;PMS_P2;Temp;Humidity;BMP_temperature;BMP_pressure;BME280_temperature;BME280_humidity;BME280_pressure;Samples;Min_cycle;Max_cycle;Signal;HPM_P1;HPM_P2
2023/06/04 00:00:06;;;;;;;9.13;2.60;;;11.00;98.30;;;;;;5138044;27;20078;-85
2023/06/04 00:02:32;;;;;;;8.60;3.08;;;11.00;98.50;;;;;;5137178;27;20038;-85
2023/06/04 00:04:58;;;;;;;8.90;2.90;;;11.00;98.70;;;;;;5137868;27;20129;-85
2023/06/04 00:07:23;;;;;;;12.10;3.40;;;10.90;98.80;;;;;;5156215;27;20051;-85
2023/06/04 00:09:49;;;;;;;8.80;2.88;;;10.90;99.10;;;;;;5155411;27;20050;-85
2023/06/04 00:12:15;;;;;;;10.00;2.92;;;10.90;99.70;;;;;;5155878;27;20085;-85
2023/06/04 00:14:41;;;;;;;8.75;3.10;;;11.30;99.70;;;;;;5156034;27;20156;-85
2023/06/04 00:17:08;;;;;;;10.18;3.28;;;10.80;99.90;;;;;;5136709;27;20039;-85
2023/06/04 00:19:34;;;;;;;10.02;3.45;;;10.70;99.90;;;;;;5137503;27;20051;-85
2023/06/04 00:21:59;;;;;;;8.80;3.00;;;10.70;99.90;;;;;;5156516;27;20257;-85
2023/06/04 00:24:25;;;;;;;8.32;3.00;;;10.70;99.90;;;;;;5155157;27;20053;-85
2023/06/04 00:26:51;;;;;;;10.30;3.50;;;10.70;99.90;;;;;;5137549;27;20039;-85
2023/06/04 00:29:16;;;;;;;9.55;3.25;;;10.60;99.90;;;;;;5155722;27;20505;-85
2023/06/04 00:31:42;;;;;;;8.70;3.30;;;10.60;99.90;;;;;;5136399;27;20050;-85
2023/06/04 00:34:07;;;;;;;9.05;3.53;;;10.60;99.90;;;;;;5154934;27;20035;-85
2023/06/04 00:36:33;;;;;;;9.73;3.42;;;11.30;99.90;;;;;;5155580;27;20042;-85
2023/06/04 00:38:59;;;;;;;9.05;3.35;;;10.50;99.90;;;;;;5155143;27;20087;-85
2023/06/04 00:41:25;;;;;;;9.77;4.10;;;10.50;99.90;;;;;;5155547;27;20038;-85
2023/06/04 00:43:55;;;;;;;10.02;3.70;;;11.10;99.90;;;;;;5136227;27;20042;-85
2023/06/04 00:46:28;;;;;;;9.73;3.63;;;10.40;99.90;;;;;;5155050;27;20043;-85
2023/06/04 00:48:54;;;;;;;9.75;4.18;;;10.40;99.90;;;;;;5137246;27;20083;-85
2023/06/04 00:51:21;;;;;;;12.57;4.60;;;10.40;99.90;;;;;;5135503;27;20050;-85
2023/06/04 00:53:48;;;;;;;11.63;3.88;;;10.40;99.90;;;;;;5136854;27;20042;-85
2023/06/04 00:56:14;;;;;;;12.98;4.32;;;10.30;99.90;;;;;;5155559;27;20038;-85
2023/06/04 00:58:40;;;;;;;11.20;4.32;;;10.30;99.90;;;;;;5156917;27;20550;-86
2023/06/04 01:01:15;;;;;;;11.27;3.95;;;10.30;99.90;;;;;;5179415;27;20046;-85
2023/06/04 01:03:44;;;;;;;10.90;3.95;;;10.30;99.90;;;;;;5148145;27;20062;-85
2023/06/04 01:06:22;;;;;;;9.55;3.92;;;10.20;99.90;;;;;;5141208;27;20070;-85
2023/06/04 01:08:54;;;;;;;12.70;4.28;;;10.20;99.90;;;;;;5155722;27;20053;-85
2023/06/04 01:11:48;;;;;;;11.45;4.32;;;10.20;99.90;;;;;;5155649;27;20042;-85
2023/06/04 01:14:15;;;;;;;10.57;4.28;;;10.10;99.90;;;;;;5132754;27;20042;-85
2023/06/04 01:17:02;;;;;;;11.05;4.15;;;10.20;99.90;;;;;;5154874;27;20038;-85
2023/06/04 01:19:47;;;;;;;9.73;3.80;;;10.10;99.90;;;;;;5135733;27;20051;-85
2023/06/04 01:22:28;;;;;;;11.27;4.20;;;10.10;99.90;;;;;;5136220;27;20044;-85
2023/06/04 01:24:59;;;;;;;11.35;4.40;;;10.00;99.90;;;;;;5155129;27;20043;-85
2023/06/04 01:27:25;;;;;;;14.52;4.05;;;10.50;99.90;;;;;;5135612;27;20130;-85
2023/06/04 01:29:51;;;;;;;12.70;4.70;;;10.00;99.90;;;;;;5136391;27;20046;-85
2023/06/04 01:32:17;;;;;;;14.10;4.57;;;9.90;99.90;;;;;;5154273;27;20083;-85
2023/06/04 01:34:46;;;;;;;13.60;4.60;;;9.90;99.90;;;;;;5154157;27;20444;-85
2023/06/04 01:37:12;;;;;;;13.90;4.55;;;10.00;99.90;;;;;;5135795;27;20045;-85
2023/06/04 01:39:38;;;;;;;12.02;4.40;;;9.90;99.90;;;;;;5154865;27;20031;-85
2023/06/04 01:42:04;;;;;;;12.75;4.55;;;9.90;99.90;;;;;;5135453;27;20513;-85
2023/06/04 01:44:29;;;;;;;11.18;4.53;;;9.90;99.90;;;;;;5154103;27;20176;-85
2023/06/04 01:46:55;;;;;;;11.93;5.10;;;9.90;99.90;;;;;;5154578;27;20050;-85
2023/06/04 01:49:20;;;;;;;11.30;4.70;;;9.80;99.90;;;;;;5153440;27;20046;-84
2023/06/04 01:51:46;;;;;;;11.20;4.70;;;9.90;99.90;;;;;;5153995;27;20050;-85
2023/06/04 01:54:12;;;;;;;12.90;5.05;;;9.80;99.90;;;;;;5153725;27;20039;-85
2023/06/04 01:56:37;;;;;;;13.30;5.38;;;9.80;99.90;;;;;;5154651;27;20114;-85
2023/06/04 01:59:03;;;;;;;13.18;4.68;;;10.20;99.90;;;;;;5136193;27;20046;-86
2023/06/04 02:01:29;;;;;;;12.77;5.00;;;9.70;99.90;;;;;;5140725;27;20073;-85
2023/06/04 02:03:55;;;;;;;12.90;5.25;;;9.70;99.90;;;;;;5133888;28;20479;-85
2023/06/04 02:06:20;;;;;;;11.85;5.22;;;9.70;99.90;;;;;;5133150;28;20035;-85
2023/06/04 02:08:46;;;;;;;12.55;5.20;;;9.70;99.90;;;;;;5114461;28;20096;-85
2023/06/04 02:11:11;;;;;;;12.57;4.88;;;9.60;99.90;;;;;;5114896;28;20050;-85
2023/06/04 02:13:37;;;;;;;12.50;5.55;;;9.60;99.90;;;;;;5115550;28;20051;-85
2023/06/04 02:16:03;;;;;;;13.63;5.25;;;9.60;99.90;;;;;;5114403;28;20130;-85
2023/06/04 02:18:29;;;;;;;13.48;5.45;;;9.60;99.90;;;;;;5114882;28;20043;-85
2023/06/04 02:20:56;;;;;;;14.68;6.03;;;9.60;99.90;;;;;;5115128;28;20142;-85
2023/06/04 02:23:22;;;;;;;13.90;5.70;;;9.50;99.90;;;;;;5132612;28;20047;-85
2023/06/04 02:25:49;;;;;;;14.40;5.57;;;9.50;99.90;;;;;;5133681;28;20130;-85
2023/06/04 02:28:15;;;;;;;15.50;5.35;;;9.50;99.90;;;;;;5133319;28;20039;-85
2023/06/04 02:30:41;;;;;;;14.73;5.78;;;10.40;99.90;;;;;;5114468;28;20402;-85
2023/06/04 02:33:09;;;;;;;17.80;6.45;;;9.50;99.90;;;;;;5114747;28;20505;-85
2023/06/04 02:35:36;;;;;;;13.55;6.03;;;9.50;99.90;;;;;;5115063;28;20051;-84
2023/06/04 02:38:01;;;;;;;13.15;6.03;;;9.40;99.90;;;;;;5114114;28;20039;-86
2023/06/04 02:40:28;;;;;;;13.32;5.97;;;9.40;99.90;;;;;;5133208;28;20038;-85
2023/06/04 02:42:55;;;;;;;18.35;6.43;;;9.40;99.90;;;;;;5114834;28;20047;-85
2023/06/04 02:45:21;;;;;;;13.30;5.95;;;9.40;99.90;;;;;;5132389;28;20039;-85
2023/06/04 02:47:47;;;;;;;17.50;6.10;;;9.40;99.90;;;;;;5133342;28;20079;-85
2023/06/04 02:50:15;;;;;;;14.98;6.00;;;9.40;99.90;;;;;;5114646;27;20129;-85
2023/06/04 02:52:41;;;;;;;15.75;6.72;;;9.40;99.90;;;;;;5114755;28;20058;-85
2023/06/04 02:55:08;;;;;;;15.40;6.75;;;9.40;99.90;;;;;;5133263;28;20074;-85
2023/06/04 02:57:34;;;;;;;14.88;5.90;;;9.40;99.90;;;;;;5132952;27;20043;-85
2023/06/04 03:00:01;;;;;;;14.95;6.53;;;9.40;99.90;;;;;;5139597;27;20046;-85
2023/06/04 03:02:27;;;;;;;15.88;6.47;;;9.40;99.90;;;;;;5118436;27;20067;-85
2023/06/04 03:04:54;;;;;;;14.43;6.85;;;9.30;99.90;;;;;;5136185;27;20046;-85
2023/06/04 03:07:22;;;;;;;19.50;6.45;;;9.90;99.90;;;;;;5118139;27;20051;-85
2023/06/04 03:09:48;;;;;;;15.65;6.97;;;9.30;99.90;;;;;;5118371;27;20086;-85
2023/06/04 03:12:14;;;;;;;15.63;7.25;;;9.30;99.90;;;;;;5117012;27;20551;-85
2023/06/04 03:14:40;;;;;;;16.25;7.22;;;9.30;99.90;;;;;;5136467;27;20043;-85
2023/06/04 03:17:10;;;;;;;19.30;7.25;;;9.30;99.90;;;;;;5117950;27;20047;-84
2023/06/04 03:19:40;;;;;;;13.82;6.75;;;9.20;99.90;;;;;;5136052;27;20394;-85
2023/06/04 03:22:08;;;;;;;16.88;6.97;;;9.20;99.90;;;;;;5136503;27;20039;-85
2023/06/04 03:24:35;;;;;;;16.50;7.05;;;9.20;99.90;;;;;;5118283;27;20105;-85
2023/06/04 03:27:02;;;;;;;19.85;7.47;;;9.20;99.90;;;;;;5135844;27;20047;-85
2023/06/04 03:29:28;;;;;;;17.85;6.72;;;9.20;99.90;;;;;;5117959;27;20108;-85
2023/06/04 03:31:53;;;;;;;19.25;7.25;;;9.20;99.90;;;;;;5136356;27;20083;-85
2023/06/04 03:34:19;;;;;;;21.60;8.32;;;9.20;99.90;;;;;;5116784;27;20119;-85
2023/06/04 03:36:44;;;;;;;15.93;6.85;;;9.20;99.90;;;;;;5118089;27;20393;-85
2023/06/04 03:39:10;;;;;;;17.25;6.90;;;9.20;99.90;;;;;;5117369;27;20093;-85
2023/06/04 03:41:36;;;;;;;15.68;7.95;;;9.20;99.90;;;;;;5135281;27;20043;-85
2023/06/04 03:44:01;;;;;;;19.73;6.88;;;9.20;99.90;;;;;;5136340;27;20039;-85
2023/06/04 03:46:31;;;;;;;17.92;7.50;;;9.20;99.90;;;;;;5117181;27;20444;-85
2023/06/04 03:48:57;;;;;;;16.15;7.25;;;9.20;99.90;;;;;;5135879;27;20043;-85
2023/06/04 03:51:23;;;;;;;17.45;7.43;;;9.20;99.90;;;;;;5135346;27;20138;-85
2023/06/04 03:53:48;;;;;;;17.33;6.97;;;9.20;99.90;;;;;;5135047;27;20083;-85
2023/06/04 03:56:14;;;;;;;17.35;7.50;;;9.20;99.90;;;;;;5117268;27;20481;-85
2023/06/04 03:58:39;;;;;;;17.92;7.80;;;9.30;99.90;;;;;;5135850;27;20050;-85
2023/06/04 04:01:06;;;;;;;20.10;7.85;;;9.30;99.90;;;;;;5137006;27;20066;-85
2023/06/04 04:03:34;;;;;;;18.60;7.60;;;9.50;99.90;;;;;;5166319;27;20046;-84
2023/06/04 04:06:00;;;;;;;16.98;7.53;;;9.30;99.90;;;;;;5148697;27;20051;-84
2023/06/04 04:08:30;;;;;;;16.10;7.55;;;9.30;99.90;;;;;;5136995;27;20039;-85
2023/06/04 04:10:55;;;;;;;16.23;7.63;;;9.30;99.90;;;;;;5135871;27;20051;-85
2023/06/04 04:13:21;;;;;;;19.77;8.02;;;9.40;99.90;;;;;;5135551;27;20042;-85
2023/06/04 04:15:46;;;;;;;21.77;7.97;;;9.40;99.90;;;;;;5116688;27;20137;-85
2023/06/04 04:18:13;;;;;;;17.08;7.72;;;9.90;99.90;;;;;;5117037;27;20043;-85
2023/06/04 04:20:38;;;;;;;17.40;7.75;;;9.40;99.90;;;;;;5135577;27;20047;-85
2023/06/04 04:23:06;;;;;;;17.17;7.25;;;10.00;99.90;;;;;;5116451;27;20054;-85
2023/06/04 04:25:32;;;;;;;17.70;7.18;;;9.60;99.90;;;;;;5116911;27;20073;-85
2023/06/04 04:28:00;;;;;;;17.20;7.30;;;9.40;99.90;;;;;;5117050;27;20054;-84
2023/06/04 04:30:25;;;;;;;20.25;8.15;;;9.50;99.90;;;;;;5134102;27;20039;-85
2023/06/04 04:32:51;;;;;;;17.48;7.68;;;9.90;99.90;;;;;;5135066;27;20096;-84
2023/06/04 04:35:18;;;;;;;16.52;8.30;;;9.50;99.90;;;;;;5116652;27;20039;-84
2023/06/04 04:37:44;;;;;;;17.17;7.40;;;9.50;99.90;;;;;;5116038;27;20062;-85
2023/06/04 04:40:11;;;;;;;18.38;7.75;;;9.60;99.90;;;;;;5116406;27;20047;-86
2023/06/04 04:42:37;;;;;;;15.70;7.55;;;9.60;99.90;;;;;;5135218;27;20513;-85
2023/06/04 04:45:03;;;;;;;16.13;7.68;;;9.60;99.90;;;;;;5115597;27;20035;-84
2023/06/04 04:47:28;;;;;;;15.30;7.15;;;9.60;99.90;;;;;;5116477;27;20051;-84
2023/06/04 04:49:57;;;;;;;15.00;7.30;;;10.10;99.90;;;;;;5115685;27;20073;-85
2023/06/04 04:52:22;;;;;;;19.27;8.10;;;9.70;99.90;;;;;;5134788;27;20051;-84
2023/06/04 04:54:48;;;;;;;14.40;7.00;;;9.70;99.90;;;;;;5116314;27;20043;-84
2023/06/04 04:57:13;;;;;;;17.35;7.70;;;10.10;99.90;;;;;;5133562;27;20077;-85
2023/06/04 04:59:39;;;;;;;22.98;7.60;;;9.80;99.90;;;;;;5116336;27;20043;-85
2023/06/04 05:02:05;;;;;;;19.50;8.13;;;9.90;99.90;;;;;;5134817;27;20125;-84
2023/06/04 05:04:30;;;;;;;20.40;7.70;;;10.00;99.90;;;;;;5133737;27;20122;-85
2023/06/04 05:06:56;;;;;;;15.63;7.40;;;10.70;99.90;;;;;;5116302;27;20071;-85
2023/06/04 05:09:22;;;;;;;20.08;8.38;;;10.00;99.90;;;;;;5134479;27;20042;-84
2023/06/04 05:11:47;;;;;;;19.67;7.32;;;10.10;99.90;;;;;;5115274;27;20522;-85
2023/06/04 05:14:13;;;;;;;16.40;7.68;;;10.20;99.90;;;;;;5134334;27;20045;-84
2023/06/04 05:16:40;;;;;;;19.42;7.80;;;10.30;99.90;;;;;;5134554;27;20390;-84
2023/06/04 05:19:06;;;;;;;18.58;8.13;;;11.00;99.90;;;;;;5115045;27;20126;-84
2023/06/04 05:21:31;;;;;;;15.13;7.97;;;10.50;99.90;;;;;;5134124;27;20521;-84
2023/06/04 05:23:57;;;;;;;18.58;8.18;;;10.60;99.90;;;;;;5115813;27;20047;-85
2023/06/04 05:26:25;;;;;;;16.10;7.85;;;10.60;99.90;;;;;;5114947;27;20078;-85
2023/06/04 05:28:51;;;;;;;16.40;8.18;;;10.70;99.90;;;;;;5115726;27;20545;-84
2023/06/04 05:31:17;;;;;;;17.98;8.05;;;10.90;99.90;;;;;;5115183;27;20129;-85
2023/06/04 05:33:44;;;;;;;15.70;8.70;;;10.90;99.90;;;;;;5115038;27;20047;-85
2023/06/04 05:36:09;;;;;;;19.35;8.52;;;11.00;99.90;;;;;;5133564;27;20773;-85
2023/06/04 05:38:35;;;;;;;16.17;8.10;;;11.20;99.90;;;;;;5134206;27;20043;-84
2023/06/04 05:41:02;;;;;;;15.70;7.63;;;11.30;99.90;;;;;;5133411;27;20039;-84
2023/06/04 05:43:27;;;;;;;19.30;7.15;;;11.50;99.90;;;;;;5133843;27;20047;-85
2023/06/04 05:45:53;;;;;;;22.52;8.07;;;11.40;99.90;;;;;;5115374;27;20047;-84
2023/06/04 05:48:18;;;;;;;15.82;8.02;;;11.50;99.90;;;;;;5132996;27;20039;-85
2023/06/04 05:50:44;;;;;;;15.00;7.93;;;11.70;99.90;;;;;;5133715;27;20058;-85
2023/06/04 05:53:10;;;;;;;16.23;7.90;;;11.70;99.90;;;;;;5133055;27;20121;-85
2023/06/04 05:55:36;;;;;;;16.92;8.10;;;11.80;99.90;;;;;;5115407;28;20096;-85
2023/06/04 05:58:02;;;;;;;17.27;7.25;;;12.00;99.90;;;;;;5115621;28;20561;-85
2023/06/04 06:00:27;;;;;;;14.38;7.32;;;12.00;99.90;;;;;;5114259;28;20039;-85
2023/06/04 06:02:53;;;;;;;14.73;7.35;;;12.10;99.90;;;;;;5115302;28;20047;-85
2023/06/04 06:05:19;;;;;;;17.17;7.47;;;12.30;99.90;;;;;;5115010;28;20393;-85
2023/06/04 06:07:46;;;;;;;13.75;6.97;;;13.00;99.90;;;;;;5114829;28;20051;-85
2023/06/04 06:10:12;;;;;;;15.85;7.28;;;12.40;99.90;;;;;;5115121;28;20046;-85
2023/06/04 06:12:38;;;;;;;17.15;6.70;;;12.50;99.90;;;;;;5117328;28;20090;-85
2023/06/04 06:15:07;;;;;;;15.40;6.18;;;13.40;99.90;;;;;;5133378;28;20082;-84
2023/06/04 06:17:32;;;;;;;14.07;6.00;;;12.60;99.90;;;;;;5133651;28;20058;-84
2023/06/04 06:19:58;;;;;;;15.07;6.43;;;12.70;99.90;;;;;;5115434;28;20398;-86
2023/06/04 06:22:24;;;;;;;11.43;5.22;;;13.30;99.90;;;;;;5132738;28;20501;-84
2023/06/04 06:24:50;;;;;;;15.30;5.63;;;13.00;99.90;;;;;;5133764;28;20080;-85
2023/06/04 06:27:17;;;;;;;13.45;5.35;;;13.70;99.90;;;;;;5114821;28;20048;-85
2023/06/04 06:29:43;;;;;;;12.60;5.70;;;13.10;99.90;;;;;;5132930;28;20043;-85
2023/06/04 06:32:12;;;;;;;10.80;4.65;;;13.10;99.90;;;;;;5114642;28;20487;-85
2023/06/04 06:34:37;;;;;;;11.20;4.72;;;13.20;99.90;;;;;;5137556;27;20043;-85
2023/06/04 06:37:04;;;;;;;13.75;5.13;;;13.60;99.90;;;;;;5136905;27;20043;-85
2023/06/04 06:39:29;;;;;;;10.73;4.63;;;13.30;99.90;;;;;;5119112;27;20410;-86
2023/06/04 06:41:55;;;;;;;12.13;4.75;;;13.40;99.90;;;;;;5137602;27;20035;-85
2023/06/04 06:44:21;;;;;;;11.68;4.57;;;13.60;99.90;;;;;;5117693;27;20043;-85
2023/06/04 06:46:48;;;;;;;11.85;4.32;;;13.60;99.90;;;;;;5137213;27;20386;-85
2023/06/04 06:49:15;;;;;;;12.75;4.47;;;14.20;99.90;;;;;;5118794;27;20517;-85
2023/06/04 06:51:42;;;;;;;11.77;4.70;;;14.10;99.90;;;;;;5136163;27;20055;-85
2023/06/04 06:54:10;;;;;;;11.98;4.10;;;14.00;99.90;;;;;;5136891;27;20046;-85
2023/06/04 06:56:36;;;;;;;10.95;4.30;;;14.40;99.90;;;;;;5118135;27;20051;-85
2023/06/04 06:59:02;;;;;;;10.48;4.00;;;14.30;99.90;;;;;;5136881;27;20483;-85
2023/06/04 07:01:27;;;;;;;12.48;4.38;;;14.30;99.90;;;;;;5136617;27;20055;-81
2023/06/04 07:03:53;;;;;;;15.07;4.90;;;14.90;99.90;;;;;;5136701;27;20562;-80
2023/06/04 07:06:18;;;;;;;11.75;4.20;;;14.70;99.90;;;;;;5153903;22;20047;-80
2023/06/04 07:08:44;;;;;;;11.15;4.13;;;15.00;99.90;;;;;;5094825;28;20511;-80
2023/06/04 07:11:12;;;;;;;12.32;3.80;;;15.30;99.90;;;;;;5093631;28;20040;-80
2023/06/04 07:13:39;;;;;;;11.55;4.07;;;15.10;99.90;;;;;;5095634;28;20036;-80
2023/06/04 07:16:05;;;;;;;11.52;4.25;;;15.10;99.90;;;;;;5094272;28;20075;-80
2023/06/04 07:18:30;;;;;;;10.38;3.80;;;15.70;99.90;;;;;;5093641;28;20079;-81
2023/06/04 07:20:56;;;;;;;12.15;4.28;;;15.30;99.90;;;;;;5094266;28;20040;-81
2023/06/04 07:23:22;;;;;;;9.40;4.10;;;15.80;99.90;;;;;;5093943;28;20040;-81
2023/06/04 07:25:47;;;;;;;10.45;3.67;;;15.70;99.90;;;;;;5094725;28;20072;-80
2023/06/04 07:28:13;;;;;;;9.88;3.40;;;15.90;99.90;;;;;;5095391;28;20480;-80
2023/06/04 07:30:39;;;;;;;9.85;3.55;;;16.00;99.90;;;;;;5095094;28;20119;-80
2023/06/04 07:33:06;;;;;;;11.27;3.45;;;16.10;99.90;;;;;;5094840;28;20460;-80
2023/06/04 07:35:31;;;;;;;9.90;3.67;;;16.20;99.90;;;;;;5095560;28;20076;-80
2023/06/04 07:37:57;;;;;;;10.68;3.53;;;16.20;99.90;;;;;;5095457;28;20079;-81
2023/06/04 07:40:23;;;;;;;10.20;3.58;;;16.30;99.90;;;;;;5094241;28;20040;-81
2023/06/04 07:42:48;;;;;;;9.68;3.45;;;16.40;99.90;;;;;;5095122;28;20494;-81
2023/06/04 07:45:15;;;;;;;9.85;3.00;;;16.60;99.90;;;;;;5094506;28;20052;-81
2023/06/04 07:47:41;;;;;;;8.18;2.95;;;16.70;99.90;;;;;;5093513;28;20048;-81
2023/06/04 07:50:07;;;;;;;8.98;2.92;;;16.70;99.90;;;;;;5094531;28;20040;-81
2023/06/04 07:52:33;;;;;;;8.38;2.70;;;16.80;99.90;;;;;;5095102;28;20044;-81
2023/06/04 07:54:59;;;;;;;8.80;2.60;;;17.60;99.90;;;;;;5094185;28;20051;-81
2023/06/04 07:57:25;;;;;;;8.05;2.63;;;17.10;99.90;;;;;;5076190;28;20123;-81
2023/06/04 07:59:53;;;;;;;8.35;2.50;;;17.40;99.90;;;;;;5094422;28;20040;-81
2023/06/04 08:02:19;;;;;;;9.82;2.60;;;17.30;99.90;;;;;;5093526;28;20047;-81
2023/06/04 08:04:46;;;;;;;7.78;2.30;;;17.50;99.90;;;;;;5097789;28;20058;-81
2023/06/04 08:07:11;;;;;;;9.50;2.45;;;17.60;99.90;;;;;;5095898;28;20494;-81
2023/06/04 08:09:37;;;;;;;7.80;2.50;;;17.80;99.90;;;;;;5114814;28;20045;-81
2023/06/04 08:12:06;;;;;;;9.35;3.20;;;17.90;99.90;;;;;;5114653;28;20050;-81
2023/06/04 08:14:32;;;;;;;8.25;2.42;;;18.00;99.90;;;;;;5114294;28;20040;-81
2023/06/04 08:16:58;;;;;;;8.30;2.40;;;18.10;99.90;;;;;;5096829;28;20138;-81
2023/06/04 08:19:23;;;;;;;10.55;2.63;;;18.20;99.90;;;;;;5114713;28;20067;-81
2023/06/04 08:21:49;;;;;;;8.48;2.30;;;18.30;99.90;;;;;;5095618;28;20055;-80
2023/06/04 08:24:15;;;;;;;9.30;2.20;;;18.30;99.90;;;;;;5096153;28;20122;-81
2023/06/04 08:26:41;;;;;;;11.45;2.58;;;18.50;99.90;;;;;;5096251;28;20419;-81
2023/06/04 08:29:07;;;;;;;8.07;2.25;;;18.50;99.90;;;;;;5095534;28;20040;-81
2023/06/04 08:31:33;;;;;;;9.85;2.50;;;18.60;99.90;;;;;;5096175;28;20444;-81
2023/06/04 08:33:58;;;;;;;7.78;2.33;;;18.50;99.90;;;;;;5114521;28;20091;-80
2023/06/04 08:36:25;;;;;;;9.05;2.60;;;18.50;99.90;;;;;;5095558;28;20040;-81
2023/06/04 08:38:52;;;;;;;7.20;2.08;;;18.70;99.90;;;;;;5114608;28;20063;-81
2023/06/04 08:41:29;;;;;;;8.35;2.40;;;18.70;99.90;;;;;;5114138;28;20044;-80
2023/06/04 08:43:58;;;;;;;8.63;2.28;;;18.90;99.30;;;;;;5113843;28;20040;-81
2023/06/04 08:46:26;;;;;;;7.22;2.15;;;19.00;99.90;;;;;;5095716;28;20093;-81
2023/06/04 08:48:53;;;;;;;8.48;2.55;;;19.00;99.40;;;;;;5095923;28;20055;-81
2023/06/04 08:51:21;;;;;;;8.18;2.60;;;19.10;99.20;;;;;;5094986;28;20043;-81
2023/06/04 08:53:50;;;;;;;8.82;2.17;;;19.10;99.10;;;;;;5095809;28;20035;-81
2023/06/04 08:56:17;;;;;;;8.02;2.30;;;19.20;98.90;;;;;;5112620;28;20071;-81
2023/06/04 08:58:44;;;;;;;7.18;2.10;;;19.40;98.80;;;;;;5113996;28;20051;-81
2023/06/04 09:01:10;;;;;;;7.80;2.30;;;19.50;97.20;;;;;;5095159;28;20475;-81
2023/06/04 09:03:37;;;;;;;5.90;1.80;;;19.60;98.30;;;;;;5094898;28;20047;-81
2023/06/04 09:06:03;;;;;;;6.97;2.00;;;19.80;98.10;;;;;;5092217;28;20056;-81
2023/06/04 09:08:34;;;;;;;9.05;2.05;;;19.90;97.60;;;;;;5093043;28;20056;-81
2023/06/04 09:11:03;;;;;;;6.47;2.00;;;20.00;97.00;;;;;;5092877;28;20048;-81
2023/06/04 09:13:31;;;;;;;6.82;1.83;;;20.00;96.90;;;;;;5093302;28;20101;-81
2023/06/04 09:16:05;;;;;;;6.82;1.90;;;20.00;95.70;;;;;;5093257;28;20475;-81
2023/06/04 09:18:34;;;;;;;7.68;2.35;;;19.90;95.50;;;;;;5092541;28;20042;-81
2023/06/04 09:21:08;;;;;;;9.32;2.33;;;20.00;95.80;;;;;;5092121;28;20136;-81
2023/06/04 09:23:43;;;;;;;6.25;1.90;;;20.20;96.30;;;;;;5093419;28;20054;-81
2023/06/04 09:26:10;;;;;;;8.63;2.38;;;21.10;94.80;;;;;;5090991;28;20036;-81
2023/06/04 09:28:39;;;;;;;8.32;1.90;;;20.80;96.00;;;;;;5091928;28;20046;-81
2023/06/04 09:31:15;;;;;;;7.95;2.00;;;21.10;95.30;;;;;;5091660;28;20043;-81
2023/06/04 09:33:50;;;;;;;7.65;2.17;;;20.70;94.50;;;;;;5093357;28;20054;-81
2023/06/04 09:36:16;;;;;;;6.68;2.20;;;20.80;94.80;;;;;;5091804;28;20040;-81
2023/06/04 09:38:42;;;;;;;7.78;2.08;;;20.80;94.70;;;;;;5091001;28;20047;-81
2023/06/04 09:41:12;;;;;;;11.02;2.85;;;20.80;94.50;;;;;;5092792;28;20056;-81
2023/06/04 09:43:38;;;;;;;5.75;1.98;;;20.90;93.70;;;;;;5091708;28;20040;-81
2023/06/04 09:46:17;;;;;;;6.82;1.90;;;21.30;94.60;;;;;;5090958;28;20404;-81
2023/06/04 09:48:44;;;;;;;7.50;2.15;;;21.10;94.20;;;;;;5092184;28;20039;-81
2023/06/04 09:51:11;;;;;;;7.95;2.30;;;21.20;94.10;;;;;;5092564;28;20079;-81
2023/06/04 09:53:37;;;;;;;7.80;1.88;;;21.30;93.90;;;;;;5090887;28;20036;-81
2023/06/04 09:56:06;;;;;;;7.80;2.22;;;21.30;93.50;;;;;;5092753;28;20040;-81
2023/06/04 09:58:32;;;;;;;8.35;2.10;;;21.30;93.40;;;;;;5091738;28;20044;-80
2023/06/04 10:01:00;;;;;;;8.52;2.03;;;21.50;93.60;;;;;;5092061;28;20047;-81
2023/06/04 10:03:30;;;;;;;7.63;2.65;;;21.70;93.40;;;;;;5091494;28;20202;-81
2023/06/04 10:06:00;;;;;;;6.60;2.10;;;21.80;92.90;;;;;;5105585;28;20506;-81
2023/06/04 10:08:27;;;;;;;9.10;2.08;;;21.70;92.30;;;;;;5097373;28;20519;-81
2023/06/04 10:10:57;;;;;;;7.38;2.20;;;21.80;92.30;;;;;;5098820;28;20418;-81
2023/06/04 10:13:26;;;;;;;7.30;2.33;;;21.90;92.30;;;;;;5098434;28;20044;-81
2023/06/04 10:15:52;;;;;;;7.25;2.20;;;21.90;92.00;;;;;;5099148;28;20505;-81
2023/06/04 10:18:18;;;;;;;7.47;2.00;;;21.90;91.40;;;;;;5098626;28;20039;-80
2023/06/04 10:20:44;;;;;;;8.13;1.90;;;22.10;91.50;;;;;;5098531;28;20427;-81
2023/06/04 10:23:12;;;;;;;7.88;2.28;;;22.20;91.40;;;;;;5098532;28;20479;-81
2023/06/04 10:25:38;;;;;;;6.32;2.00;;;22.40;90.90;;;;;;5098510;28;20096;-81
2023/06/04 10:28:07;;;;;;;6.93;2.10;;;22.50;91.10;;;;;;5116512;28;20040;-81
2023/06/04 10:30:32;;;;;;;8.75;2.30;;;22.60;91.00;;;;;;5098251;28;20047;-81
2023/06/04 10:32:58;;;;;;;8.32;2.22;;;22.50;90.60;;;;;;5117277;28;20039;-81
2023/06/04 10:35:31;;;;;;;9.23;2.38;;;22.50;90.30;;;;;;5097435;28;20044;-81
2023/06/04 10:38:11;;;;;;;8.13;2.00;;;22.50;90.50;;;;;;5116833;28;20123;-81
2023/06/04 10:40:38;;;;;;;6.47;2.00;;;22.60;90.00;;;;;;5098766;28;20045;-81
2023/06/04 10:43:08;;;;;;;6.65;2.25;;;22.50;90.20;;;;;;5116199;28;20048;-81
2023/06/04 10:45:33;;;;;;;7.50;2.10;;;22.70;90.10;;;;;;5116914;28;20044;-81
2023/06/04 10:48:03;;;;;;;7.68;2.00;;;22.40;89.90;;;;;;5098293;28;20464;-81
2023/06/04 10:50:29;;;;;;;7.63;2.67;;;22.70;90.00;;;;;;5097161;28;20437;-81
2023/06/04 10:52:58;;;;;;;7.63;2.25;;;22.80;90.10;;;;;;5116802;28;20039;-80
2023/06/04 10:55:25;;;;;;;8.32;2.20;;;23.10;90.00;;;;;;5097923;28;20035;-81
2023/06/04 10:57:55;;;;;;;7.78;2.35;;;23.40;90.10;;;;;;5116012;28;20040;-81
2023/06/04 11:00:22;;;;;;;7.90;2.72;;;23.70;90.10;;;;;;5097839;28;20043;-81
2023/06/04 11:02:58;;;;;;;8.68;2.25;;;23.60;89.00;;;;;;5097309;28;20054;-81
2023/06/04 11:05:34;;;;;;;7.00;2.00;;;23.70;86.30;;;;;;5097497;28;20406;-81
2023/06/04 11:08:00;;;;;;;8.63;2.15;;;23.60;87.90;;;;;;5097946;28;20090;-81
2023/06/04 11:10:35;;;;;;;10.35;2.30;;;23.60;87.50;;;;;;5096846;28;20086;-81
2023/06/04 11:13:03;;;;;;;9.35;2.50;;;23.60;86.50;;;;;;5098218;28;20044;-81
2023/06/04 11:15:41;;;;;;;7.28;2.30;;;23.60;86.80;;;;;;5097264;28;20043;-80
2023/06/04 11:18:07;;;;;;;8.55;2.03;;;23.30;84.70;;;;;;5115136;28;20119;-81
2023/06/04 11:20:32;;;;;;;7.95;2.60;;;23.20;86.50;;;;;;5097309;28;20172;-81
2023/06/04 11:23:02;;;;;;;9.05;2.25;;;23.30;87.30;;;;;;5097806;28;20108;-81
2023/06/04 11:25:30;;;;;;;8.48;2.30;;;23.30;87.60;;;;;;5096808;28;20067;-81
2023/06/04 11:27:57;;;;;;;8.80;2.50;;;23.50;87.30;;;;;;5115931;28;20047;-81
2023/06/04 11:30:24;;;;;;;7.45;2.15;;;23.60;87.00;;;;;;5097116;28;20044;-80
2023/06/04 11:32:50;;;;;;;7.40;2.20;;;24.00;86.80;;;;;;5115032;28;20043;-81
2023/06/04 11:35:16;;;;;;;8.80;2.45;;;24.20;86.50;;;;;;5097239;28;20040;-81
2023/06/04 11:37:52;;;;;;;8.52;2.40;;;24.40;85.80;;;;;;5097490;28;20043;-81
2023/06/04 11:40:19;;;;;;;7.35;2.10;;;24.50;86.10;;;;;;5115411;28;20075;-81
2023/06/04 11:42:48;;;;;;;8.88;2.20;;;24.10;85.90;;;;;;5115516;28;20388;-81
2023/06/04 11:45:16;;;;;;;9.38;2.20;;;24.00;85.90;;;;;;5114686;28;20039;-81
2023/06/04 11:47:55;;;;;;;7.28;2.25;;;24.10;86.10;;;;;;5097464;28;20097;-80
2023/06/04 11:50:21;;;;;;;8.45;2.20;;;24.10;85.80;;;;;;5115267;28;20114;-80
2023/06/04 11:52:48;;;;;;;6.97;2.08;;;24.10;85.40;;;;;;5096729;28;20100;-81
2023/06/04 11:55:17;;;;;;;8.35;2.45;;;24.10;84.90;;;;;;5096859;28;20451;-81
2023/06/04 11:57:43;;;;;;;6.10;1.98;;;24.20;84.40;;;;;;5097126;28;20138;-80
2023/06/04 12:00:10;;;;;;;6.97;2.20;;;24.10;84.30;;;;;;5095832;28;20044;-80
2023/06/04 12:02:48;;;;;;;7.18;2.47;;;24.30;84.30;;;;;;5115458;28;20045;-81
2023/06/04 12:05:15;;;;;;;8.02;2.20;;;24.30;84.50;;;;;;5096517;28;20060;-81
2023/06/04 12:07:41;;;;;;;6.40;1.90;;;24.10;83.90;;;;;;5114497;28;20075;-81
2023/06/04 12:10:13;;;;;;;6.50;2.28;;;24.20;84.50;;;;;;5096755;28;20051;-81
2023/06/04 12:12:40;;;;;;;7.70;2.38;;;24.40;84.10;;;;;;5115266;28;20118;-81
2023/06/04 12:15:07;;;;;;;6.30;2.05;;;24.60;84.60;;;;;;5114187;28;20036;-80
2023/06/04 12:17:33;;;;;;;8.18;1.98;;;24.60;82.50;;;;;;5096694;28;20502;-81
2023/06/04 12:19:58;;;;;;;5.40;1.90;;;24.70;82.80;;;;;;5114477;28;20043;-81
2023/06/04 12:22:26;;;;;;;7.85;2.30;;;24.90;83.00;;;;;;5114716;28;20040;-81
2023/06/04 12:24:57;;;;;;;7.57;2.20;;;25.00;82.90;;;;;;5115030;28;20071;-80
2023/06/04 12:27:25;;;;;;;7.07;2.05;;;25.10;82.20;;;;;;5113724;28;20444;-81
2023/06/04 12:29:57;;;;;;;8.35;2.13;;;25.10;81.60;;;;;;5114618;28;20122;-81
2023/06/04 12:32:23;;;;;;;7.95;2.13;;;25.20;82.60;;;;;;5095307;28;20081;-81
2023/06/04 12:34:48;;;;;;;7.25;2.10;;;25.50;82.10;;;;;;5113808;28;20079;-81
2023/06/04 12:37:14;;;;;;;5.70;1.88;;;25.20;81.40;;;;;;5114735;28;20051;-81
2023/06/04 12:39:40;;;;;;;6.25;1.85;;;25.10;81.40;;;;;;5114678;28;20529;-80
2023/06/04 12:42:08;;;;;;;6.65;2.08;;;25.10;80.60;;;;;;5113882;28;20456;-81